Time;durP1;ratioP1;P1;durP2;ratioP2;P2;SDS_P1;SDS_P2;PMS_P1;PMS_P2;Temp;Humidity;BMP_temperature;BMP_pressure;BME280_temperature;BME280_humidity;BME280_pressure;Samples;Min_cycle;Max_cycle;Signal;HPM_P1;HPM_P2
2024/01/10 00:00:44;;;;;;;38.17;12.37;;;;;;;;;;6133268;23;20181;-91
2024/01/10 00:03:52;;;;;;;30.50;11.90;;;;;;;;;;6132400;23;20149;-91
2024/01/10 00:06:59;;;;;;;34.03;12.00;;;;;;;;;;6131501;23;20225;-91
2024/01/10 00:10:05;;;;;;;39.30;12.97;;;;;;;;;;6132961;23;20158;-92
2024/01/10 00:13:12;;;;;;;31.47;11.23;;;;;;;;;;6131803;23;20253;-91
2024/01/10 00:16:17;;;;;;;34.77;12.03;;;;;;;;;;6152855;23;20161;-94
2024/01/10 00:28:56;;;;;;;37.90;13.10;;;;;;;;;;6137419;23;20202;-89
2024/01/10 00:34:37;;;;;;;33.50;12.53;;;;;;;;;;6110755;23;20201;-91
2024/01/10 00:37:43;;;;;;;37.67;13.60;;;;;;;;;;6149480;23;20516;-91
2024/01/10 00:40:38;;;;;;;40.60;13.07;;;;;;;;;;6178444;23;20280;-90
2024/01/10 00:43:44;;;;;;;34.57;11.20;;;;;;;;;;6179406;23;20169;-92
2024/01/10 00:46:53;;;;;;;34.23;12.47;;;;;;;;;;6179404;23;20176;-90
2024/01/10 00:50:06;;;;;;;34.23;11.83;;;;;;;;;;6179869;23;20148;-91
2024/01/10 00:53:13;;;;;;;36.47;12.93;;;;;;;;;;6180912;23;20177;-90
2024/01/10 00:56:19;;;;;;;34.47;13.10;;;;;;;;;;6179995;23;20176;-92
2024/01/10 00:59:26;;;;;;;33.13;12.17;;;;;;;;;;6180473;23;20176;-91
2024/01/10 01:02:36;;;;;;;35.27;12.30;;;;;;;;;;6163296;23;20216;-92
2024/01/10 01:05:46;;;;;;;35.73;12.13;;;;;;;;;;6179416;23;20172;-91
2024/01/10 01:08:53;;;;;;;33.57;12.77;;;;;;;;;;6181441;23;20193;-90
2024/01/10 01:12:00;;;;;;;34.83;12.60;;;;;;;;;;6179196;23;20172;-93
2024/01/10 01:15:07;;;;;;;38.43;12.50;;;;;;;;;;6144001;23;20200;-90
2024/01/10 01:18:12;;;;;;;31.23;11.70;;;;;;;;;;6118859;23;20198;-91
2024/01/10 01:21:20;;;;;;;36.00;12.20;;;;;;;;;;6119080;23;20157;-93
2024/01/10 01:24:27;;;;;;;34.83;12.13;;;;;;;;;;6120738;23;20195;-90
2024/01/10 01:27:34;;;;;;;33.23;12.73;;;;;;;;;;6120309;23;20219;-92
2024/01/10 01:30:40;;;;;;;33.73;11.00;;;;;;;;;;6118918;23;20165;-91
2024/01/10 01:33:48;;;;;;;34.67;12.17;;;;;;;;;;6120334;23;20157;-90
2024/01/10 01:37:00;;;;;;;33.33;11.30;;;;;;;;;;6119239;23;20194;-92
2024/01/10 01:40:09;;;;;;;34.60;11.87;;;;;;;;;;6118862;23;20197;-90
2024/01/10 01:43:22;;;;;;;36.00;12.17;;;;;;;;;;6120853;23;20229;-92
2024/01/10 01:46:28;;;;;;;35.13;12.20;;;;;;;;;;6118745;23;20223;-90
2024/01/10 01:49:33;;;;;;;36.83;13.00;;;;;;;;;;6119307;23;20227;-91
2024/01/10 01:52:40;;;;;;;39.67;13.83;;;;;;;;;;6118203;23;20149;-92
2024/01/10 01:55:47;;;;;;;37.13;13.60;;;;;;;;;;6103172;23;20166;-93
2024/01/10 01:58:54;;;;;;;36.50;13.57;;;;;;;;;;6120458;23;20173;-92
2024/01/10 02:02:03;;;;;;;35.60;12.73;;;;;;;;;;6119952;23;20202;-91
2024/01/10 02:05:09;;;;;;;37.40;13.17;;;;;;;;;;6119288;23;20231;-93
2024/01/10 02:08:32;;;;;;;34.80;12.97;;;;;;;;;;6119968;23;20193;-92
2024/01/10 02:11:38;;;;;;;35.23;12.13;;;;;;;;;;6120868;23;20178;-92
2024/01/10 02:14:44;;;;;;;32.07;11.90;;;;;;;;;;6118736;23;20170;-93
2024/01/10 02:17:49;;;;;;;32.57;11.70;;;;;;;;;;6119690;23;20194;-93
2024/01/10 02:20:55;;;;;;;29.77;11.03;;;;;;;;;;6120601;23;20201;-92
2024/01/10 02:24:06;;;;;;;36.83;13.07;;;;;;;;;;6121143;23;20170;-90
2024/01/10 02:27:27;;;;;;;35.07;12.27;;;;;;;;;;6121630;23;20169;-92
2024/01/10 02:30:36;;;;;;;34.20;12.23;;;;;;;;;;6120573;23;20207;-90
2024/01/10 02:33:41;;;;;;;33.63;10.80;;;;;;;;;;6120926;23;20243;-91
2024/01/10 02:36:47;;;;;;;32.43;11.50;;;;;;;;;;6118026;23;20173;-92
2024/01/10 02:39:53;;;;;;;33.63;11.67;;;;;;;;;;6118979;23;20226;-91
2024/01/10 02:43:01;;;;;;;34.83;11.97;;;;;;;;;;6119575;23;20183;-91
2024/01/10 02:46:18;;;;;;;34.43;11.20;;;;;;;;;;6119029;23;20153;-93
2024/01/10 02:49:25;;;;;;;31.90;11.80;;;;;;;;;;6120839;23;20234;-91
2024/01/10 02:52:31;;;;;;;27.43;10.67;;;;;;;;;;6119777;23;20170;-91
2024/01/10 02:55:38;;;;;;;31.83;10.43;;;;;;;;;;6117904;23;20166;-91
2024/01/10 02:58:44;;;;;;;30.57;11.13;;;;;;;;;;6116869;23;20177;-94
2024/01/10 03:01:53;;;;;;;37.53;12.23;;;;;;;;;;6118348;23;20198;-92
2024/01/10 03:04:58;;;;;;;33.70;11.87;;;;;;;;;;6118950;23;20541;-93
2024/01/10 03:08:06;;;;;;;31.67;11.83;;;;;;;;;;6116904;23;20235;-93
2024/01/10 03:11:18;;;;;;;36.50;12.40;;;;;;;;;;6142620;23;20210;-92
2024/01/10 03:14:24;;;;;;;33.70;12.60;;;;;;;;;;6148483;23;20186;-92
2024/01/10 03:17:33;;;;;;;29.43;11.87;;;;;;;;;;6151541;23;20157;-91
2024/01/10 03:20:40;;;;;;;34.70;12.00;;;;;;;;;;6151503;23;20178;-92
2024/01/10 03:23:47;;;;;;;34.77;12.70;;;;;;;;;;6151038;23;20249;-90
2024/01/10 03:26:53;;;;;;;32.77;12.37;;;;;;;;;;6149028;23;20505;-93
2024/01/10 03:29:59;;;;;;;35.93;12.70;;;;;;;;;;6148530;23;20157;-92
2024/01/10 03:33:07;;;;;;;34.30;12.00;;;;;;;;;;6148951;23;20157;-92
2024/01/10 03:36:13;;;;;;;35.87;11.80;;;;;;;;;;6150282;23;20218;-90
2024/01/10 03:39:20;;;;;;;33.23;11.73;;;;;;;;;;6150036;23;20166;-90
2024/01/10 03:42:26;;;;;;;32.00;11.10;;;;;;;;;;6150136;23;20165;-92
2024/01/10 03:45:33;;;;;;;29.40;11.80;;;;;;;;;;6150227;23;20213;-91
2024/01/10 03:48:47;;;;;;;33.77;10.77;;;;;;;;;;6150333;23;20170;-90
2024/01/10 03:51:53;;;;;;;30.50;11.13;;;;;;;;;;6149549;23;20188;-89
2024/01/10 03:55:01;;;;;;;29.83;11.53;;;;;;;;;;6149983;23;20205;-93
2024/01/10 03:58:07;;;;;;;33.50;12.43;;;;;;;;;;6145698;23;20257;-92
2024/01/10 04:01:13;;;;;;;33.43;11.03;;;;;;;;;;6147953;23;20234;-90
2024/01/10 04:04:22;;;;;;;36.37;12.40;;;;;;;;;;6149349;23;20209;-92
2024/01/10 04:07:29;;;;;;;37.57;11.63;;;;;;;;;;6131196;23;20174;-90
2024/01/10 04:10:35;;;;;;;37.30;12.27;;;;;;;;;;6147009;23;20209;-91
2024/01/10 04:17:01;;;;;;;30.90;12.37;;;;;;;;;;6148970;23;20172;-90
2024/01/10 04:20:11;;;;;;;41.47;14.13;;;;;;;;;;6147827;23;20193;-91
2024/01/10 04:23:17;;;;;;;41.17;13.07;;;;;;;;;;6147427;23;20174;-89
2024/01/10 04:26:26;;;;;;;38.93;12.60;;;;;;;;;;6147496;23;20234;-90
2024/01/10 04:29:32;;;;;;;40.87;12.40;;;;;;;;;;6148382;23;20145;-92
2024/01/10 04:32:41;;;;;;;42.27;14.10;;;;;;;;;;6147709;23;20194;-91
2024/01/10 04:35:49;;;;;;;47.83;13.70;;;;;;;;;;6148702;23;20169;-92
2024/01/10 04:38:56;;;;;;;45.70;13.83;;;;;;;;;;6148635;23;20157;-91
2024/01/10 04:42:05;;;;;;;39.90;13.70;;;;;;;;;;6148904;23;20222;-91
2024/01/10 04:48:34;;;;;;;33.67;11.87;;;;;;;;;;6121554;23;20169;-91
2024/01/10 04:51:50;;;;;;;35.53;11.47;;;;;;;;;;6119831;23;20166;-90
2024/01/10 04:54:56;;;;;;;37.77;12.47;;;;;;;;;;6119799;23;20198;-92
2024/01/10 04:58:04;;;;;;;39.63;12.23;;;;;;;;;;6121029;23;20157;-90
2024/01/10 05:01:10;;;;;;;31.40;11.37;;;;;;;;;;6121068;23;20200;-91
2024/01/10 05:04:17;;;;;;;34.73;11.87;;;;;;;;;;6121266;23;20214;-91
2024/01/10 06:00:53;;;;;;;32.33;10.67;;;;;;;;;;6165527;23;20233;-92
2024/01/10 12:10:11;;;;;;;59.97;15.90;;;;;;;;;;6090763;23;20294;-93
2024/01/10 12:13:17;;;;;;;45.47;16.03;;;;;;;;;;6137839;23;20190;-92
2024/01/10 12:16:25;;;;;;;50.03;15.17;;;;;;;;;;6147794;23;20169;-92
2024/01/10 12:19:32;;;;;;;40.90;15.00;;;;;;;;;;6148859;23;20193;-94
2024/01/10 12:22:38;;;;;;;49.27;15.43;;;;;;;;;;6148139;23;20242;-92
2024/01/10 12:25:52;;;;;;;49.63;15.40;;;;;;;;;;6149574;23;20178;-94
2024/01/10 12:29:08;;;;;;;46.30;16.30;;;;;;;;;;6150218;23;20207;-93
2024/01/10 12:32:15;;;;;;;47.40;16.03;;;;;;;;;;6148583;23;20194;-94
2024/01/10 12:38:44;;;;;;;61.67;19.80;;;;;;;;;;6150797;23;20190;-93
2024/01/10 12:41:52;;;;;;;41.63;16.07;;;;;;;;;;6149669;23;20201;-94
2024/01/10 13:03:03;;;;;;;46.87;16.33;;;;;;;;;;6128581;23;20210;-92
2024/01/10 13:06:09;;;;;;;44.83;16.70;;;;;;;;;;6149681;23;20185;-92
2024/01/10 13:09:16;;;;;;;48.30;16.30;;;;;;;;;;6148583;23;20201;-93
2024/01/10 13:12:21;;;;;;;45.83;16.37;;;;;;;;;;6147210;23;20157;-94
2024/01/10 13:15:27;;;;;;;48.83;17.40;;;;;;;;;;6148333;23;20212;-93
2024/01/10 13:18:39;;;;;;;57.07;17.87;;;;;;;;;;6148654;23;20270;-94
2024/01/10 13:21:46;;;;;;;53.77;17.60;;;;;;;;;;6148370;23;20252;-92
2024/01/10 13:24:53;;;;;;;43.70;16.77;;;;;;;;;;6147945;23;20173;-93
2024/01/10 13:28:00;;;;;;;49.97;16.70;;;;;;;;;;6148293;23;20165;-91
2024/01/10 14:59:31;;;;;;;49.90;19.20;;;;;;;;;;6052721;23;20991;-91
2024/01/10 15:02:42;;;;;;;54.57;18.10;;;;;;;;;;6117680;23;20318;-93
2024/01/10 15:05:48;;;;;;;53.30;18.17;;;;;;;;;;6102474;23;20530;-94
2024/01/10 15:09:02;;;;;;;53.30;19.10;;;;;;;;;;6110997;23;20241;-92
2024/01/10 15:12:10;;;;;;;54.13;19.57;;;;;;;;;;6118329;23;20214;-92
2024/01/10 15:15:16;;;;;;;55.33;19.27;;;;;;;;;;6119537;23;20157;-94
2024/01/10 15:18:37;;;;;;;51.00;18.13;;;;;;;;;;6122364;23;20191;-95
2024/01/10 15:21:47;;;;;;;51.47;18.20;;;;;;;;;;6120727;23;20198;-92
2024/01/10 15:24:53;;;;;;;54.87;20.03;;;;;;;;;;6119612;23;20199;-93
2024/01/10 15:28:00;;;;;;;45.03;18.60;;;;;;;;;;6117738;23;20165;-92
2024/01/10 15:31:05;;;;;;;48.27;19.10;;;;;;;;;;6118934;23;20218;-94
2024/01/10 15:34:12;;;;;;;50.27;18.30;;;;;;;;;;6119021;23;20222;-92
2024/01/10 15:37:36;;;;;;;49.37;18.93;;;;;;;;;;6117948;23;20272;-91
2024/01/10 15:40:44;;;;;;;56.80;20.33;;;;;;;;;;6119104;23;20187;-92
2024/01/10 15:43:50;;;;;;;52.97;19.80;;;;;;;;;;6119660;23;20203;-93
2024/01/10 15:46:57;;;;;;;54.17;19.60;;;;;;;;;;6120000;23;20187;-93
2024/01/10 15:50:04;;;;;;;55.50;21.20;;;;;;;;;;6118551;23;20522;-94
2024/01/10 16:16:32;;;;;;;56.70;21.23;;;;;;;;;;6106495;23;20234;-93
2024/01/10 16:19:40;;;;;;;63.53;20.97;;;;;;;;;;6149009;23;20185;-95
2024/01/10 16:22:46;;;;;;;56.10;20.17;;;;;;;;;;6146527;23;20198;-94
2024/01/10 16:25:52;;;;;;;60.87;21.43;;;;;;;;;;6145370;23;20165;-93
2024/01/10 16:29:00;;;;;;;61.63;22.37;;;;;;;;;;6146083;23;20152;-92
2024/01/10 16:32:11;;;;;;;60.23;21.30;;;;;;;;;;6146303;23;20535;-93
2024/01/10 16:35:17;;;;;;;65.17;21.77;;;;;;;;;;6148008;23;20194;-94
2024/01/10 16:38:23;;;;;;;56.77;21.23;;;;;;;;;;6145349;23;20169;-93
2024/01/10 16:44:50;;;;;;;61.17;22.23;;;;;;;;;;6149530;23;20248;-91
2024/01/10 16:47:57;;;;;;;65.97;23.20;;;;;;;;;;6148782;23;20152;-90
2024/01/10 16:51:13;;;;;;;60.67;22.13;;;;;;;;;;6148856;23;20193;-93
2024/01/10 16:54:21;;;;;;;66.50;22.13;;;;;;;;;;6150227;23;20169;-93
2024/01/10 16:57:32;;;;;;;76.63;23.97;;;;;;;;;;6150393;23;20165;-91
2024/01/10 17:00:37;;;;;;;66.90;24.73;;;;;;;;;;6148819;23;20549;-92
2024/01/10 17:41:55;;;;;;;50.93;20.37;;;;;;;;;;6106016;23;20193;-92
2024/01/10 17:45:01;;;;;;;121.33;40.37;;;;;;;;;;6146609;23;20194;-92
2024/01/10 17:48:20;;;;;;;47.77;17.23;;;;;;;;;;6128005;23;20200;-93
2024/01/10 17:51:28;;;;;;;55.30;17.30;;;;;;;;;;6132555;23;20221;-92
2024/01/10 17:54:35;;;;;;;55.07;19.40;;;;;;;;;;6146847;23;20161;-91
2024/01/10 17:57:53;;;;;;;51.00;19.00;;;;;;;;;;6149053;23;20160;-95
2024/01/10 18:24:31;;;;;;;68.23;25.37;;;;;;;;;;6085954;23;20213;-91
2024/01/10 18:34:16;;;;;;;73.07;26.10;;;;;;;;;;6148852;23;20169;-93
2024/01/10 18:37:21;;;;;;;65.60;23.23;;;;;;;;;;6148739;23;20169;-92
2024/01/10 18:40:37;;;;;;;67.50;23.50;;;;;;;;;;6148581;23;20161;-91
2024/01/10 18:43:43;;;;;;;63.53;22.90;;;;;;;;;;6148756;23;20218;-93
2024/01/10 18:46:53;;;;;;;62.80;23.43;;;;;;;;;;6146959;23;20165;-91
2024/01/10 20:12:32;;;;;;;72.13;25.73;;;;;;;;;;6104808;23;20213;-93
2024/01/10 20:15:49;;;;;;;74.30;26.60;;;;;;;;;;6132079;23;20198;-93
2024/01/10 23:00:50;;;;;;;75.43;26.13;;;;;;;;;;6034580;23;20206;-89
2024/01/10 23:03:59;;;;;;;74.53;26.07;;;;;;;;;;6089297;23;20202;-90
2024/01/10 23:07:08;;;;;;;75.17;25.13;;;;;;;;;;6085060;23;20234;-90
2024/01/10 23:10:17;;;;;;;69.03;25.57;;;;;;;;;;6089666;23;20195;-91
2024/01/10 23:13:26;;;;;;;75.47;25.73;;;;;;;;;;6089847;23;20200;-91
2024/01/10 23:16:34;;;;;;;61.17;23.90;;;;;;;;;;6074170;23;20174;-90
2024/01/10 23:19:42;;;;;;;69.00;24.13;;;;;;;;;;6088629;23;20169;-90
2024/01/10 23:22:51;;;;;;;65.27;24.37;;;;;;;;;;6088915;23;20202;-92
2024/01/10 23:25:57;;;;;;;67.97;24.47;;;;;;;;;;6088981;23;20154;-91
2024/01/10 23:29:07;;;;;;;64.27;24.10;;;;;;;;;;6090647;23;20289;-90
2024/01/10 23:32:26;;;;;;;74.93;26.40;;;;;;;;;;6089636;23;20179;-93
2024/01/10 23:35:34;;;;;;;67.43;24.47;;;;;;;;;;6090652;23;20159;-91
2024/01/10 23:38:40;;;;;;;68.77;24.47;;;;;;;;;;6092581;23;20195;-90
2024/01/10 23:41:47;;;;;;;68.50;23.77;;;;;;;;;;6090025;23;20167;-92
2024/01/10 23:44:52;;;;;;;71.20;24.03;;;;;;;;;;6091235;23;20175;-92
2024/01/10 23:48:02;;;;;;;68.93;24.53;;;;;;;;;;6089972;23;20155;-91
2024/01/10 23:51:10;;;;;;;62.97;23.60;;;;;;;;;;6090348;23;20223;-91
2024/01/10 23:54:19;;;;;;;59.30;22.87;;;;;;;;;;6081684;23;20229;-93
2024/01/10 23:57:29;;;;;;;68.10;24.40;;;;;;;;;;6090388;23;20176;-91
